sensor_id;sensor_type;location;lat;lon;timestamp;pressure;altitude;pressure_sealevel;temperature;humidity
75538;BME280;64121;48.666;8.114;2023-03-23T00:00:04;99401.41;;;14.07;57.07
75538;BME280;64121;48.666;8.114;2023-03-23T00:02:31;99401.59;;;14.28;55.65
75538;BME280;64121;48.666;8.114;2023-03-23T00:04:56;99388.38;;;14.25;56.06
75538;BME280;64121;48.666;8.114;2023-03-23T00:07:22;99395.22;;;14.31;55.71
75538;BME280;64121;48.666;8.114;2023-03-23T00:09:48;99390.50;;;14.39;55.34
75538;BME280;64121;48.666;8.114;2023-03-23T00:12:14;99388.16;;;14.44;55.09
75538;BME280;64121;48.666;8.114;2023-03-23T00:14:39;99387.38;;;14.47;54.66
75538;BME280;64121;48.666;8.114;2023-03-23T00:17:06;99390.56;;;14.46;55.13
75538;BME280;64121;48.666;8.114;2023-03-23T00:19:31;99378.06;;;14.36;55.77
75538;BME280;64121;48.666;8.114;2023-03-23T00:21:57;99383.34;;;14.45;55.81
75538;BME280;64121;48.666;8.114;2023-03-23T00:24:22;99390.97;;;14.48;54.85
75538;BME280;64121;48.666;8.114;2023-03-23T00:26:48;99387.78;;;14.49;54.91
75538;BME280;64121;48.666;8.114;2023-03-23T00:29:16;99393.03;;;14.58;54.58
75538;BME280;64121;48.666;8.114;2023-03-23T00:31:42;99395.38;;;14.49;55.47
75538;BME280;64121;48.666;8.114;2023-03-23T00:34:09;99395.34;;;14.45;55.27
75538;BME280;64121;48.666;8.114;2023-03-23T00:36:35;99381.84;;;14.54;54.27
75538;BME280;64121;48.666;8.114;2023-03-23T00:39:00;99376.25;;;14.62;54.46
75538;BME280;64121;48.666;8.114;2023-03-23T00:41:27;99368.72;;;14.69;53.96
75538;BME280;64121;48.666;8.114;2023-03-23T00:43:52;99377.09;;;14.66;54.49
75538;BME280;64121;48.666;8.114;2023-03-23T00:46:18;99373.47;;;14.62;55.35
75538;BME280;64121;48.666;8.114;2023-03-23T00:48:44;99361.94;;;14.70;54.69
75538;BME280;64121;48.666;8.114;2023-03-23T00:51:11;99357.97;;;14.78;53.86
75538;BME280;64121;48.666;8.114;2023-03-23T00:53:37;99356.75;;;14.79;53.46
75538;BME280;64121;48.666;8.114;2023-03-23T00:56:03;99357.97;;;14.78;53.77
75538;BME280;64121;48.666;8.114;2023-03-23T00:58:28;99353.56;;;14.81;53.31
75538;BME280;64121;48.666;8.114;2023-03-23T01:00:54;99351.97;;;14.87;53.18
75538;BME280;64121;48.666;8.114;2023-03-23T01:03:19;99354.38;;;14.81;53.54
75538;BME280;64121;48.666;8.114;2023-03-23T01:05:45;99355.16;;;14.82;53.52
75538;BME280;64121;48.666;8.114;2023-03-23T01:08:12;99351.22;;;14.90;53.21
75538;BME280;64121;48.666;8.114;2023-03-23T01:10:38;99346.41;;;14.91;53.48
75538;BME280;64121;48.666;8.114;2023-03-23T01:13:04;99348.03;;;14.99;52.86
75538;BME280;64121;48.666;8.114;2023-03-23T01:15:30;99343.25;;;15.03;53.03
75538;BME280;64121;48.666;8.114;2023-03-23T01:17:56;99341.66;;;15.02;52.88
75538;BME280;64121;48.666;8.114;2023-03-23T01:20:22;99336.91;;;15.13;52.44
75538;BME280;64121;48.666;8.114;2023-03-23T01:22:48;99331.63;;;15.01;53.43
75538;BME280;64121;48.666;8.114;2023-03-23T01:25:14;99323.63;;;15.03;52.92
75538;BME280;64121;48.666;8.114;2023-03-23T01:27:40;99323.63;;;14.99;53.50
75538;BME280;64121;48.666;8.114;2023-03-23T01:30:07;99321.63;;;14.96;53.78
75538;BME280;64121;48.666;8.114;2023-03-23T01:32:34;99320.44;;;14.97;53.82
75538;BME280;64121;48.666;8.114;2023-03-23T01:35:00;99314.81;;;14.94;53.89
75538;BME280;64121;48.666;8.114;2023-03-23T01:37:25;99306.03;;;15.06;53.24
75538;BME280;64121;48.666;8.114;2023-03-23T01:39:52;99302.44;;;15.02;53.43
75538;BME280;64121;48.666;8.114;2023-03-23T01:42:21;99300.81;;;15.01;53.62
75538;BME280;64121;48.666;8.114;2023-03-23T01:47:51;99301.66;;;15.12;53.85
75538;BME280;64121;48.666;8.114;2023-03-23T01:50:18;99291.25;;;15.12;53.24
75538;BME280;64121;48.666;8.114;2023-03-23T01:52:45;99297.66;;;15.13;53.35
75538;BME280;64121;48.666;8.114;2023-03-23T01:55:10;99288.47;;;15.12;53.46
75538;BME280;64121;48.666;8.114;2023-03-23T01:57:37;99285.66;;;15.09;53.49
75538;BME280;64121;48.666;8.114;2023-03-23T02:00:06;99270.84;;;15.19;52.77
75538;BME280;64121;48.666;8.114;2023-03-23T02:02:32;99270.03;;;15.19;53.11
75538;BME280;64121;48.666;8.114;2023-03-23T02:05:02;99266.84;;;15.20;52.60
75538;BME280;64121;48.666;8.114;2023-03-23T02:07:29;99253.25;;;15.29;52.85
75538;BME280;64121;48.666;8.114;2023-03-23T02:09:56;99247.66;;;15.33;52.48
75538;BME280;64121;48.666;8.114;2023-03-23T02:12:21;99244.44;;;15.34;52.24
75538;BME280;64121;48.666;8.114;2023-03-23T02:14:48;99244.03;;;15.39;51.75
75538;BME280;64121;48.666;8.114;2023-03-23T02:17:19;99239.66;;;15.45;51.72
75538;BME280;64121;48.666;8.114;2023-03-23T02:20:04;99238.06;;;15.52;51.16
75538;BME280;64121;48.666;8.114;2023-03-23T02:22:51;99235.66;;;15.50;51.76
75538;BME280;64121;48.666;8.114;2023-03-23T02:25:36;99240.44;;;15.42;52.44
75538;BME280;64121;48.666;8.114;2023-03-23T02:28:22;99242.03;;;15.40;52.69
75538;BME280;64121;48.666;8.114;2023-03-23T02:31:04;99238.03;;;15.41;52.48
75538;BME280;64121;48.666;8.114;2023-03-23T02:33:46;99243.28;;;15.46;52.50
75538;BME280;64121;48.666;8.114;2023-03-23T02:36:19;99246.03;;;15.42;53.16
75538;BME280;64121;48.666;8.114;2023-03-23T02:38:52;99234.84;;;15.46;52.84
75538;BME280;64121;48.666;8.114;2023-03-23T02:41:21;99232.06;;;15.50;52.42
75538;BME280;64121;48.666;8.114;2023-03-23T02:43:48;99226.03;;;15.55;52.98
75538;BME280;64121;48.666;8.114;2023-03-23T02:46:15;99218.84;;;15.47;52.86
75538;BME280;64121;48.666;8.114;2023-03-23T02:48:44;99228.44;;;15.53;52.07
75538;BME280;64121;48.666;8.114;2023-03-23T02:51:11;99233.66;;;15.47;53.32
75538;BME280;64121;48.666;8.114;2023-03-23T02:53:40;99225.25;;;15.51;52.54
75538;BME280;64121;48.666;8.114;2023-03-23T02:56:07;99234.44;;;15.51;52.94
75538;BME280;64121;48.666;8.114;2023-03-23T02:58:34;99216.84;;;15.68;51.83
75538;BME280;64121;48.666;8.114;2023-03-23T03:00:59;99215.25;;;15.64;51.87
75538;BME280;64121;48.666;8.114;2023-03-23T03:03:27;99218.84;;;15.82;50.86
75538;BME280;64121;48.666;8.114;2023-03-23T03:06:00;99229.25;;;15.89;50.66
75538;BME280;64121;48.666;8.114;2023-03-23T03:08:34;99230.41;;;15.98;50.05
75538;BME280;64121;48.666;8.114;2023-03-23T03:11:05;99228.06;;;15.86;51.30
75538;BME280;64121;48.666;8.114;2023-03-23T03:13:39;99226.84;;;15.77;51.83
75538;BME280;64121;48.666;8.114;2023-03-23T03:16:16;99227.66;;;15.73;51.92
75538;BME280;64121;48.666;8.114;2023-03-23T03:18:48;99226.84;;;15.77;51.60
75538;BME280;64121;48.666;8.114;2023-03-23T03:21:18;99224.84;;;15.77;51.89
75538;BME280;64121;48.666;8.114;2023-03-23T03:23:46;99225.66;;;15.70;52.26
75538;BME280;64121;48.666;8.114;2023-03-23T03:26:14;99218.06;;;15.82;51.01
75538;BME280;64121;48.666;8.114;2023-03-23T03:28:39;99223.63;;;15.89;52.13
75538;BME280;64121;48.666;8.114;2023-03-23T03:31:06;99226.47;;;15.82;51.16
75538;BME280;64121;48.666;8.114;2023-03-23T03:33:33;99227.66;;;15.77;51.50
75538;BME280;64121;48.666;8.114;2023-03-23T03:36:00;99231.66;;;15.80;51.20
75538;BME280;64121;48.666;8.114;2023-03-23T03:38:28;99234.47;;;15.83;51.05
75538;BME280;64121;48.666;8.114;2023-03-23T03:40:55;99230.44;;;15.77;51.41
75538;BME280;64121;48.666;8.114;2023-03-23T03:43:20;99233.25;;;15.77;51.77
75538;BME280;64121;48.666;8.114;2023-03-23T03:45:46;99238.47;;;15.82;52.11
75538;BME280;64121;48.666;8.114;2023-03-23T03:48:11;99240.88;;;15.77;51.56
75538;BME280;64121;48.666;8.114;2023-03-23T03:50:37;99244.50;;;15.81;51.00
75538;BME280;64121;48.666;8.114;2023-03-23T03:53:02;99233.66;;;15.75;51.71
75538;BME280;64121;48.666;8.114;2023-03-23T03:55:29;99237.69;;;15.85;51.01
75538;BME280;64121;48.666;8.114;2023-03-23T03:57:55;99224.06;;;15.84;51.35
75538;BME280;64121;48.666;8.114;2023-03-23T04:00:20;99229.66;;;15.91;50.14
75538;BME280;64121;48.666;8.114;2023-03-23T04:02:47;99237.28;;;15.83;51.12
75538;BME280;64121;48.666;8.114;2023-03-23T04:05:13;99235.28;;;15.73;51.77
75538;BME280;64121;48.666;8.114;2023-03-23T04:07:39;99244.50;;;15.73;51.58
75538;BME280;64121;48.666;8.114;2023-03-23T04:10:06;99244.88;;;15.72;51.12
75538;BME280;64121;48.666;8.114;2023-03-23T04:12:33;99235.69;;;15.68;51.21
75538;BME280;64121;48.666;8.114;2023-03-23T04:14:58;99242.09;;;15.68;51.52
75538;BME280;64121;48.666;8.114;2023-03-23T04:17:24;99244.91;;;15.68;51.05
75538;BME280;64121;48.666;8.114;2023-03-23T04:19:49;99244.50;;;15.70;51.28
75538;BME280;64121;48.666;8.114;2023-03-23T04:22:14;99254.91;;;15.69;51.14
75538;BME280;64121;48.666;8.114;2023-03-23T04:24:40;99245.66;;;15.55;52.04
75538;BME280;64121;48.666;8.114;2023-03-23T04:27:05;99250.88;;;15.49;52.76
75538;BME280;64121;48.666;8.114;2023-03-23T04:29:32;99250.06;;;15.31;53.99
75538;BME280;64121;48.666;8.114;2023-03-23T04:31:57;99255.25;;;15.18;54.51
75538;BME280;64121;48.666;8.114;2023-03-23T04:34:22;99258.84;;;15.08;54.87
75538;BME280;64121;48.666;8.114;2023-03-23T04:36:48;99249.59;;;14.97;55.62
75538;BME280;64121;48.666;8.114;2023-03-23T04:39:13;99255.16;;;14.86;56.17
75538;BME280;64121;48.666;8.114;2023-03-23T04:41:39;99256.34;;;14.78;56.83
75538;BME280;64121;48.666;8.114;2023-03-23T04:44:05;99265.47;;;14.68;57.81
75538;BME280;64121;48.666;8.114;2023-03-23T04:46:32;99251.88;;;14.59;58.09
75538;BME280;64121;48.666;8.114;2023-03-23T04:48:58;99253.03;;;14.51;58.92
75538;BME280;64121;48.666;8.114;2023-03-23T04:51:24;99256.94;;;14.43;58.76
75538;BME280;64121;48.666;8.114;2023-03-23T04:53:49;99259.75;;;14.39;58.94
75538;BME280;64121;48.666;8.114;2023-03-23T04:56:14;99255.28;;;14.28;59.47
75538;BME280;64121;48.666;8.114;2023-03-23T04:58:40;99262.06;;;14.27;59.59
75538;BME280;64121;48.666;8.114;2023-03-23T05:01:05;99259.25;;;14.23;59.54
75538;BME280;64121;48.666;8.114;2023-03-23T05:03:32;99265.63;;;14.16;60.14
75538;BME280;64121;48.666;8.114;2023-03-23T05:05:57;99270.75;;;14.07;60.34
75538;BME280;64121;48.666;8.114;2023-03-23T05:08:26;99267.09;;;14.00;60.65
75538;BME280;64121;48.666;8.114;2023-03-23T05:10:53;99267.88;;;13.97;61.02
75538;BME280;64121;48.666;8.114;2023-03-23T05:13:19;99267.81;;;13.89;61.40
75538;BME280;64121;48.666;8.114;2023-03-23T05:15:45;99264.19;;;13.85;61.31
75538;BME280;64121;48.666;8.114;2023-03-23T05:18:10;99267.78;;;13.82;62.19
75538;BME280;64121;48.666;8.114;2023-03-23T05:20:37;99270.16;;;13.80;62.20
75538;BME280;64121;48.666;8.114;2023-03-23T05:23:03;99268.88;;;13.71;62.65
75538;BME280;64121;48.666;8.114;2023-03-23T05:25:28;99268.41;;;13.61;63.00
75538;BME280;64121;48.666;8.114;2023-03-23T05:27:53;99269.94;;;13.55;63.71
75538;BME280;64121;48.666;8.114;2023-03-23T05:30:20;99277.50;;;13.51;64.10
75538;BME280;64121;48.666;8.114;2023-03-23T05:32:46;99280.72;;;13.53;64.95
75538;BME280;64121;48.666;8.114;2023-03-23T05:35:12;99288.22;;;13.42;65.18
75538;BME280;64121;48.666;8.114;2023-03-23T05:37:38;99293.72;;;13.35;66.20
75538;BME280;64121;48.666;8.114;2023-03-23T05:40:05;99298.44;;;13.27;68.87
75538;BME280;64121;48.666;8.114;2023-03-23T05:42:32;99303.97;;;13.20;67.64
75538;BME280;64121;48.666;8.114;2023-03-23T05:44:58;99309.03;;;13.15;68.80
75538;BME280;64121;48.666;8.114;2023-03-23T05:47:23;99312.16;;;13.06;71.10
75538;BME280;64121;48.666;8.114;2023-03-23T05:49:48;99318.44;;;12.99;69.92
75538;BME280;64121;48.666;8.114;2023-03-23T05:52:13;99312.81;;;12.96;72.59
75538;BME280;64121;48.666;8.114;2023-03-23T05:54:40;99318.38;;;12.92;72.22
75538;BME280;64121;48.666;8.114;2023-03-23T05:57:06;99320.66;;;12.83;72.75
75538;BME280;64121;48.666;8.114;2023-03-23T05:59:31;99322.19;;;12.81;72.66
75538;BME280;64121;48.666;8.114;2023-03-23T06:01:56;99322.97;;;12.78;73.00
75538;BME280;64121;48.666;8.114;2023-03-23T06:04:22;99324.16;;;12.77;73.23
75538;BME280;64121;48.666;8.114;2023-03-23T06:06:47;99326.50;;;12.71;73.15
75538;BME280;64121;48.666;8.114;2023-03-23T06:09:12;99320.56;;;12.76;72.46
75538;BME280;64121;48.666;8.114;2023-03-23T06:11:39;99319.91;;;12.86;71.29
75538;BME280;64121;48.666;8.114;2023-03-23T06:14:04;99315.53;;;12.89;71.26
75538;BME280;64121;48.666;8.114;2023-03-23T06:16:30;99314.75;;;12.88;71.08
75538;BME280;64121;48.666;8.114;2023-03-23T06:18:55;99319.56;;;12.91;70.89
75538;BME280;64121;48.666;8.114;2023-03-23T06:21:21;99334.69;;;12.90;71.34
75538;BME280;64121;48.666;8.114;2023-03-23T06:23:47;99329.47;;;12.85;73.34
75538;BME280;64121;48.666;8.114;2023-03-23T06:26:14;99343.50;;;12.92;71.54
75538;BME280;64121;48.666;8.114;2023-03-23T06:28:41;99349.47;;;12.91;71.36
75538;BME280;64121;48.666;8.114;2023-03-23T06:31:06;99346.28;;;12.92;72.09
75538;BME280;64121;48.666;8.114;2023-03-23T06:33:32;99347.47;;;12.91;72.55
75538;BME280;64121;48.666;8.114;2023-03-23T06:35:57;99362.97;;;12.85;72.81
75538;BME280;64121;48.666;8.114;2023-03-23T06:38:23;99356.63;;;12.88;72.34
75538;BME280;64121;48.666;8.114;2023-03-23T06:40:51;99371.34;;;12.85;73.92
75538;BME280;64121;48.666;8.114;2023-03-23T06:43:16;99371.00;;;12.90;73.31
75538;BME280;64121;48.666;8.114;2023-03-23T06:45:43;99382.94;;;12.87;73.64
75538;BME280;64121;48.666;8.114;2023-03-23T06:48:08;99391.19;;;12.80;74.56
75538;BME280;64121;48.666;8.114;2023-03-23T06:50:34;99398.34;;;12.78;75.73
75538;BME280;64121;48.666;8.114;2023-03-23T06:52:59;99400.19;;;12.66;76.40
75538;BME280;64121;48.666;8.114;2023-03-23T06:55:24;99405.38;;;12.41;79.15
75538;BME280;64121;48.666;8.114;2023-03-23T06:57:50;99408.13;;;12.38;79.95
75538;BME280;64121;48.666;8.114;2023-03-23T07:00:15;99414.47;;;12.35;78.67
75538;BME280;64121;48.666;8.114;2023-03-23T07:02:43;99417.75;;;12.40;79.59
75538;BME280;64121;48.666;8.114;2023-03-23T07:05:08;99421.72;;;12.39;79.00
75538;BME280;64121;48.666;8.114;2023-03-23T07:07:34;99434.09;;;12.42;78.22
75538;BME280;64121;48.666;8.114;2023-03-23T07:10:00;99437.06;;;12.53;78.17
75538;BME280;64121;48.666;8.114;2023-03-23T07:12:25;99436.38;;;12.59;78.86
75538;BME280;64121;48.666;8.114;2023-03-23T07:14:50;99437.22;;;12.63;79.91
75538;BME280;64121;48.666;8.114;2023-03-23T07:17:16;99421.41;;;12.71;78.91
75538;BME280;64121;48.666;8.114;2023-03-23T07:19:42;99409.56;;;12.81;78.70
75538;BME280;64121;48.666;8.114;2023-03-23T07:22:08;99403.31;;;12.91;78.01
75538;BME280;64121;48.666;8.114;2023-03-23T07:24:34;99407.75;;;12.96;74.92
75538;BME280;64121;48.666;8.114;2023-03-23T07:26:59;99411.38;;;12.96;76.71
75538;BME280;64121;48.666;8.114;2023-03-23T07:29:25;99417.31;;;12.95;75.79
75538;BME280;64121;48.666;8.114;2023-03-23T07:31:51;99424.19;;;13.01;74.98
75538;BME280;64121;48.666;8.114;2023-03-23T07:34:16;99424.56;;;12.99;75.08
75538;BME280;64121;48.666;8.114;2023-03-23T07:36:43;99428.16;;;13.00;74.79
75538;BME280;64121;48.666;8.114;2023-03-23T07:39:08;99422.66;;;13.03;76.00
75538;BME280;64121;48.666;8.114;2023-03-23T07:41:33;99425.81;;;13.02;74.06
75538;BME280;64121;48.666;8.114;2023-03-23T07:43:59;99439.34;;;13.00;74.12
75538;BME280;64121;48.666;8.114;2023-03-23T07:46:24;99438.53;;;12.99;73.55
75538;BME280;64121;48.666;8.114;2023-03-23T07:48:49;99442.56;;;13.02;73.14
75538;BME280;64121;48.666;8.114;2023-03-23T07:51:15;99445.06;;;13.11;73.15
75538;BME280;64121;48.666;8.114;2023-03-23T07:53:41;99455.00;;;13.08;72.30
75538;BME280;64121;48.666;8.114;2023-03-23T07:56:07;99452.03;;;13.20;71.83
75538;BME280;64121;48.666;8.114;2023-03-23T07:58:33;99460.94;;;13.33;71.20
75538;BME280;64121;48.666;8.114;2023-03-23T08:00:58;99459.94;;;13.48;70.25
75538;BME280;64121;48.666;8.114;2023-03-23T08:03:23;99454.31;;;13.45;69.82
75538;BME280;64121;48.666;8.114;2023-03-23T08:05:49;99456.00;;;13.53;69.78
75538;BME280;64121;48.666;8.114;2023-03-23T08:08:14;99459.22;;;13.55;70.00
75538;BME280;64121;48.666;8.114;2023-03-23T08:10:41;99454.44;;;13.55;69.62
75538;BME280;64121;48.666;8.114;2023-03-23T08:13:06;99456.91;;;13.60;69.62
75538;BME280;64121;48.666;8.114;2023-03-23T08:15:32;99456.94;;;13.64;69.30
75538;BME280;64121;48.666;8.114;2023-03-23T08:17:58;99456.97;;;13.68;69.63
75538;BME280;64121;48.666;8.114;2023-03-23T08:20:23;99451.44;;;13.75;69.63
75538;BME280;64121;48.666;8.114;2023-03-23T08:22:51;99461.00;;;13.70;69.65
75538;BME280;64121;48.666;8.114;2023-03-23T08:25:17;99468.19;;;13.71;70.80
75538;BME280;64121;48.666;8.114;2023-03-23T08:27:44;99472.97;;;13.71;70.58
75538;BME280;64121;48.666;8.114;2023-03-23T08:30:10;99472.19;;;13.74;69.88
75538;BME280;64121;48.666;8.114;2023-03-23T08:32:36;99473.81;;;13.75;69.99
75538;BME280;64121;48.666;8.114;2023-03-23T08:35:02;99475.41;;;13.76;70.78
75538;BME280;64121;48.666;8.114;2023-03-23T08:37:27;99484.13;;;13.67;70.97
75538;BME280;64121;48.666;8.114;2023-03-23T08:39:54;99485.69;;;13.64;70.94
75538;BME280;64121;48.666;8.114;2023-03-23T08:42:19;99487.31;;;13.66;70.84
75538;BME280;64121;48.666;8.114;2023-03-23T08:44:46;99501.75;;;13.71;70.68
75538;BME280;64121;48.666;8.114;2023-03-23T08:47:11;99505.34;;;13.72;70.45
75538;BME280;64121;48.666;8.114;2023-03-23T08:49:37;99510.47;;;13.66;70.99
75538;BME280;64121;48.666;8.114;2023-03-23T08:52:02;99513.31;;;13.70;70.59
75538;BME280;64121;48.666;8.114;2023-03-23T08:54:28;99522.84;;;13.65;70.59
75538;BME280;64121;48.666;8.114;2023-03-23T08:56:53;99526.88;;;13.68;70.79
75538;BME280;64121;48.666;8.114;2023-03-23T08:59:19;99521.63;;;13.62;71.30
75538;BME280;64121;48.666;8.114;2023-03-23T09:01:45;99526.44;;;13.66;71.42
75538;BME280;64121;48.666;8.114;2023-03-23T09:04:11;99532.47;;;13.68;71.85
75538;BME280;64121;48.666;8.114;2023-03-23T09:06:36;99528.44;;;13.65;71.97
75538;BME280;64121;48.666;8.114;2023-03-23T09:09:02;99529.97;;;13.59;71.98
75538;BME280;64121;48.666;8.114;2023-03-23T09:11:28;99531.22;;;13.65;72.14
75538;BME280;64121;48.666;8.114;2023-03-23T09:13:53;99522.06;;;13.68;71.96
75538;BME280;64121;48.666;8.114;2023-03-23T09:16:18;99521.28;;;13.68;72.71
75538;BME280;64121;48.666;8.114;2023-03-23T09:18:45;99522.13;;;13.72;71.75
75538;BME280;64121;48.666;8.114;2023-03-23T09:21:10;99523.31;;;13.71;71.61
75538;BME280;64121;48.666;8.114;2023-03-23T09:23:36;99516.63;;;13.79;72.14
75538;BME280;64121;48.666;8.114;2023-03-23T09:26:02;99514.25;;;13.81;71.51
75538;BME280;64121;48.666;8.114;2023-03-23T09:28:28;99518.69;;;13.85;71.68
75538;BME280;64121;48.666;8.114;2023-03-23T09:30:55;99517.13;;;13.88;71.55
75538;BME280;64121;48.666;8.114;2023-03-23T09:33:20;99522.75;;;13.91;71.40
75538;BME280;64121;48.666;8.114;2023-03-23T09:35:47;99525.16;;;13.93;71.58
75538;BME280;64121;48.666;8.114;2023-03-23T09:38:12;99532.81;;;13.96;71.12
75538;BME280;64121;48.666;8.114;2023-03-23T09:40:43;99520.44;;;13.97;72.20
75538;BME280;64121;48.666;8.114;2023-03-23T09:46:12;99514.06;;;14.00;72.46
75538;BME280;64121;48.666;8.114;2023-03-23T09:48:47;99522.34;;;13.93;72.71
75538;BME280;64121;48.666;8.114;2023-03-23T09:51:22;99525.63;;;13.99;70.71
75538;BME280;64121;48.666;8.114;2023-03-23T09:53:52;99521.63;;;13.96;70.71
75538;BME280;64121;48.666;8.114;2023-03-23T09:56:19;99527.28;;;14.03;70.71
75538;BME280;64121;48.666;8.114;2023-03-23T09:58:51;99528.13;;;14.07;69.89
75538;BME280;64121;48.666;8.114;2023-03-23T10:01:21;99536.94;;;14.13;69.97
75538;BME280;64121;48.666;8.114;2023-03-23T10:03:52;99535.03;;;14.17;70.52
75538;BME280;64121;48.666;8.114;2023-03-23T10:06:22;99532.25;;;14.20;68.32
75538;BME280;64121;48.666;8.114;2023-03-23T10:08:50;99531.06;;;14.21;68.25
75538;BME280;64121;48.666;8.114;2023-03-23T10:11:22;99536.34;;;14.30;67.94
75538;BME280;64121;48.666;8.114;2023-03-23T10:13:59;99526.38;;;14.33;68.39
75538;BME280;64121;48.666;8.114;2023-03-23T10:16:29;99537.63;;;14.36;68.05
75538;BME280;64121;48.666;8.114;2023-03-23T10:18:58;99536.94;;;14.50;67.42
75538;BME280;64121;48.666;8.114;2023-03-23T10:21:29;99538.88;;;14.42;67.41
75538;BME280;64121;48.666;8.114;2023-03-23T10:23:58;99535.66;;;14.40;68.16
75538;BME280;64121;48.666;8.114;2023-03-23T10:26:36;99543.31;;;14.43;67.26
75538;BME280;64121;48.666;8.114;2023-03-23T10:29:11;99536.94;;;14.50;67.79
75538;BME280;64121;48.666;8.114;2023-03-23T10:31:40;99541.44;;;14.58;66.97
75538;BME280;64121;48.666;8.114;2023-03-23T10:34:11;99538.25;;;14.60;67.84
75538;BME280;64121;48.666;8.114;2023-03-23T10:36:49;99539.09;;;14.67;68.20
75538;BME280;64121;48.666;8.114;2023-03-23T10:39:17;99534.28;;;14.64;66.99
75538;BME280;64121;48.666;8.114;2023-03-23T10:41:44;99536.78;;;14.73;66.66
75538;BME280;64121;48.666;8.114;2023-03-23T10:44:15;99535.22;;;14.82;67.20
75538;BME280;64121;48.666;8.114;2023-03-23T10:46:45;99546.53;;;14.93;66.59
75538;BME280;64121;48.666;8.114;2023-03-23T10:49:12;99534.94;;;14.95;66.81
75538;BME280;64121;48.666;8.114;2023-03-23T10:51:46;99529.03;;;15.10;66.01
75538;BME280;64121;48.666;8.114;2023-03-23T10:54:25;99534.38;;;15.30;65.17
75538;BME280;64121;48.666;8.114;2023-03-23T10:56:51;99528.38;;;15.38;65.52
75538;BME280;64121;48.666;8.114;2023-03-23T10:59:20;99538.81;;;15.41;64.86
75538;BME280;64121;48.666;8.114;2023-03-23T11:01:50;99539.56;;;15.31;66.17
75538;BME280;64121;48.666;8.114;2023-03-23T11:04:16;99540.38;;;15.28;66.56
75538;BME280;64121;48.666;8.114;2023-03-23T11:06:45;99540.28;;;15.18;66.03
75538;BME280;64121;48.666;8.114;2023-03-23T11:09:14;99543.88;;;15.14;66.93
75538;BME280;64121;48.666;8.114;2023-03-23T11:11:41;99547.09;;;15.20;67.29
75538;BME280;64121;48.666;8.114;2023-03-23T11:14:15;99550.00;;;15.34;66.61
75538;BME280;64121;48.666;8.114;2023-03-23T11:16:43;99545.63;;;15.40;66.55
75538;BME280;64121;48.666;8.114;2023-03-23T11:19:14;99546.00;;;15.39;66.47
75538;BME280;64121;48.666;8.114;2023-03-23T11:21:40;99543.69;;;15.48;67.62
75538;BME280;64121;48.666;8.114;2023-03-23T11:24:12;99543.28;;;15.46;67.54
75538;BME280;64121;48.666;8.114;2023-03-23T11:26:37;99551.69;;;15.46;67.36
75538;BME280;64121;48.666;8.114;2023-03-23T11:29:05;99550.91;;;15.53;68.62
75538;BME280;64121;48.666;8.114;2023-03-23T11:31:34;99538.94;;;15.59;67.00
75538;BME280;64121;48.666;8.114;2023-03-23T11:34:02;99551.41;;;15.69;67.75
75538;BME280;64121;48.666;8.114;2023-03-23T11:36:31;99548.28;;;15.88;67.25
75538;BME280;64121;48.666;8.114;2023-03-23T11:38:57;99549.03;;;15.78;68.47
75538;BME280;64121;48.666;8.114;2023-03-23T11:41:24;99545.06;;;15.83;67.96
75538;BME280;64121;48.666;8.114;2023-03-23T11:43:53;99546.34;;;15.99;67.39
75538;BME280;64121;48.666;8.114;2023-03-23T11:46:29;99544.34;;;16.14;67.72
75538;BME280;64121;48.666;8.114;2023-03-23T11:48:58;99535.16;;;16.35;66.61
75538;BME280;64121;48.666;8.114;2023-03-23T11:51:30;99548.06;;;16.64;64.79
75538;BME280;64121;48.666;8.114;2023-03-23T11:54:00;99538.72;;;16.07;64.91
75538;BME280;64121;48.666;8.114;2023-03-23T11:56:30;99537.97;;;16.28;65.69
75538;BME280;64121;48.666;8.114;2023-03-23T11:58:59;99538.81;;;16.57;64.28
75538;BME280;64121;48.666;8.114;2023-03-23T12:01:36;99536.41;;;16.52;64.05
75538;BME280;64121;48.666;8.114;2023-03-23T12:04:30;99518.75;;;16.51;65.82
75538;BME280;64121;48.666;8.114;2023-03-23T12:07:04;99528.38;;;16.61;64.37
75538;BME280;64121;48.666;8.114;2023-03-23T12:09:41;99512.75;;;16.60;63.85
75538;BME280;64121;48.666;8.114;2023-03-23T12:12:14;99514.72;;;16.34;64.59
75538;BME280;64121;48.666;8.114;2023-03-23T12:14:50;99509.91;;;16.46;64.94
75538;BME280;64121;48.666;8.114;2023-03-23T12:17:26;99513.09;;;16.33;64.66
75538;BME280;64121;48.666;8.114;2023-03-23T12:20:03;99507.47;;;16.16;66.05
75538;BME280;64121;48.666;8.114;2023-03-23T12:22:40;99508.72;;;16.43;64.55
75538;BME280;64121;48.666;8.114;2023-03-23T12:25:22;99504.69;;;16.51;64.22
75538;BME280;64121;48.666;8.114;2023-03-23T12:27:52;99502.31;;;16.64;63.65
75538;BME280;64121;48.666;8.114;2023-03-23T12:30:28;99497.09;;;16.45;65.70
75538;BME280;64121;48.666;8.114;2023-03-23T12:33:07;99492.66;;;16.33;65.79
75538;BME280;64121;48.666;8.114;2023-03-23T12:35:43;99489.06;;;16.57;65.00
75538;BME280;64121;48.666;8.114;2023-03-23T12:38:27;99480.22;;;16.91;63.65
75538;BME280;64121;48.666;8.114;2023-03-23T12:41:08;99480.66;;;16.75;64.15
75538;BME280;64121;48.666;8.114;2023-03-23T12:43:43;99485.06;;;16.94;63.34
75538;BME280;64121;48.666;8.114;2023-03-23T12:46:33;99478.19;;;17.02;61.97
75538;BME280;64121;48.666;8.114;2023-03-23T12:49:05;99483.41;;;17.07;62.56
75538;BME280;64121;48.666;8.114;2023-03-23T12:51:35;99483.34;;;17.29;61.73
75538;BME280;64121;48.666;8.114;2023-03-23T12:54:08;99477.31;;;17.37;61.06
75538;BME280;64121;48.666;8.114;2023-03-23T12:56:36;99484.94;;;17.37;60.58
75538;BME280;64121;48.666;8.114;2023-03-23T12:59:10;99474.84;;;17.46;60.40
75538;BME280;64121;48.666;8.114;2023-03-23T13:01:42;99471.69;;;17.26;60.10
75538;BME280;64121;48.666;8.114;2023-03-23T13:04:12;99474.47;;;17.41;60.34
75538;BME280;64121;48.666;8.114;2023-03-23T13:06:41;99457.16;;;17.46;61.09
75538;BME280;64121;48.666;8.114;2023-03-23T13:09:16;99459.94;;;17.60;60.33